createdAt,value
2019-06-26T00:00:30.337Z,6.07
2019-06-26T00:03:02.178Z,6.23
2019-06-26T00:05:34.278Z,5.90
2019-06-26T00:08:06.129Z,6.20
2019-06-26T00:10:37.877Z,6.10
2019-06-26T00:13:24.829Z,6.33
2019-06-26T00:15:43.119Z,6.42
2019-06-26T00:18:14.901Z,5.80
2019-06-26T00:20:46.640Z,6.07
2019-06-26T00:23:18.415Z,6.53
2019-06-26T00:25:50.180Z,5.87
2019-06-26T00:28:21.951Z,6.30
2019-06-26T00:30:53.721Z,6.03
2019-06-26T00:33:25.490Z,5.67
2019-06-26T00:35:58.389Z,6.10
2019-06-26T00:38:30.163Z,6.30
2019-06-26T00:41:01.926Z,5.50
2019-06-26T00:43:42.232Z,6.70
2019-06-26T00:46:07.163Z,6.47
2019-06-26T00:48:38.960Z,6.47
2019-06-26T00:51:11.098Z,6.20
2019-06-26T00:53:42.872Z,6.40
2019-06-26T00:56:14.637Z,5.50
2019-06-26T00:58:46.402Z,6.40
2019-06-26T01:01:18.171Z,6.17
2019-06-26T01:03:51.579Z,5.83
2019-06-26T01:06:24.984Z,6.20
2019-06-26T01:08:56.753Z,6.37
2019-06-26T01:11:28.689Z,6.90
2019-06-26T01:14:00.475Z,6.87
2019-06-26T01:16:32.244Z,7.37
2019-06-26T01:19:04.021Z,6.83
2019-06-26T01:21:35.788Z,6.63
2019-06-26T01:24:07.565Z,6.70
2019-06-26T01:26:39.956Z,6.20
2019-06-26T01:29:12.002Z,6.10
2019-06-26T01:31:43.801Z,6.57
2019-06-26T01:34:15.553Z,6.97
2019-06-26T01:36:47.324Z,6.27
2019-06-26T01:39:19.113Z,5.58
2019-06-26T01:41:50.894Z,5.87
2019-06-26T01:44:22.647Z,6.45
2019-06-26T01:46:54.410Z,6.90
2019-06-26T01:49:26.187Z,6.67
2019-06-26T01:51:57.987Z,6.30
2019-06-26T01:54:29.734Z,6.50
2019-06-26T01:57:01.511Z,6.80
2019-06-26T01:59:33.314Z,6.67
2019-06-26T02:02:05.149Z,7.07
2019-06-26T02:04:36.994Z,8.37
2019-06-26T02:07:08.762Z,7.17
2019-06-26T02:09:41.012Z,7.40
2019-06-26T02:12:12.794Z,7.20
2019-06-26T02:14:44.749Z,6.53
2019-06-26T02:17:16.688Z,7.53
2019-06-26T02:19:48.467Z,7.03
2019-06-26T02:22:20.235Z,7.03
2019-06-26T02:24:52.016Z,6.67
2019-06-26T02:27:24.053Z,6.83
2019-06-26T02:29:55.839Z,7.07
2019-06-26T02:32:27.608Z,6.63
2019-06-26T02:34:59.424Z,6.70
2019-06-26T02:37:32.791Z,6.90
2019-06-26T02:40:06.715Z,6.90
2019-06-26T02:42:38.659Z,5.87
2019-06-26T02:45:11.721Z,5.42
2019-06-26T02:47:43.501Z,4.77
2019-06-26T02:50:16.023Z,4.95
2019-06-26T02:52:47.797Z,5.50
2019-06-26T02:55:19.581Z,5.97
2019-06-26T02:57:51.648Z,6.63
2019-06-26T03:00:23.934Z,7.62
2019-06-26T03:02:55.688Z,7.50
2019-06-26T03:05:27.474Z,8.08
2019-06-26T03:07:59.240Z,7.90
2019-06-26T03:10:31.025Z,8.47
2019-06-26T03:13:02.796Z,10.00
2019-06-26T03:15:34.579Z,9.90
2019-06-26T03:18:06.419Z,9.10
2019-06-26T03:20:45.623Z,8.40
2019-06-26T03:23:17.390Z,8.98
2019-06-26T03:25:49.173Z,8.63
2019-06-26T03:28:20.940Z,8.53
2019-06-26T03:30:52.727Z,8.70
2019-06-26T03:33:24.493Z,7.62
2019-06-26T03:35:57.910Z,8.00
2019-06-26T03:38:29.656Z,8.27
2019-06-26T03:41:01.450Z,8.17
2019-06-26T03:43:35.422Z,8.03
2019-06-26T03:46:07.719Z,7.57
2019-06-26T03:48:39.595Z,8.00
2019-06-26T03:51:13.823Z,7.60
2019-06-26T03:53:44.851Z,7.77
2019-06-26T03:56:16.627Z,8.10
2019-06-26T03:58:48.408Z,8.40
2019-06-26T04:01:20.246Z,9.13
2019-06-26T04:03:52.038Z,8.73
2019-06-26T04:06:24.183Z,8.47
2019-06-26T04:08:55.950Z,8.27
2019-06-26T04:11:27.731Z,7.75
2019-06-26T04:13:59.772Z,7.73
2019-06-26T04:16:31.541Z,7.30
2019-06-26T04:19:03.341Z,8.07
2019-06-26T04:21:35.162Z,8.73
2019-06-26T04:24:06.929Z,9.60
2019-06-26T04:26:38.710Z,9.97
2019-06-26T04:29:11.024Z,9.77
2019-06-26T04:31:42.802Z,9.20
2019-06-26T04:34:14.590Z,9.00
2019-06-26T04:36:46.353Z,8.07
2019-06-26T04:39:18.119Z,8.63
2019-06-26T04:41:49.915Z,7.50
2019-06-26T04:44:21.666Z,7.47
2019-06-26T04:46:53.454Z,8.83
2019-06-26T04:49:25.217Z,7.92
2019-06-26T04:51:56.995Z,8.07
2019-06-26T04:54:28.839Z,8.27
2019-06-26T04:57:00.693Z,9.37
2019-06-26T04:59:32.468Z,7.90
2019-06-26T05:02:04.238Z,8.03
2019-06-26T05:04:36.028Z,10.90
2019-06-26T05:07:07.797Z,10.83
2019-06-26T05:09:40.643Z,11.13
2019-06-26T05:12:12.440Z,11.13
2019-06-26T05:14:44.319Z,11.27
2019-06-26T05:17:16.274Z,10.20
2019-06-26T05:19:48.053Z,9.93
2019-06-26T05:22:20.614Z,10.33
2019-06-26T05:24:52.697Z,9.70
2019-06-26T05:27:24.483Z,10.68
2019-06-26T05:29:56.265Z,9.90
2019-06-26T05:32:28.142Z,10.38
2019-06-26T05:35:00.381Z,10.40
2019-06-26T05:37:32.363Z,10.13
2019-06-26T05:40:09.162Z,10.95
2019-06-26T05:42:40.964Z,10.48
2019-06-26T05:45:13.841Z,10.63
2019-06-26T05:47:45.633Z,10.13
2019-06-26T05:50:18.114Z,9.70
2019-06-26T05:52:49.896Z,9.90
2019-06-26T05:55:22.008Z,9.78
2019-06-26T05:57:54.179Z,10.13
2019-06-26T06:00:26.034Z,10.03
2019-06-26T06:02:58.653Z,9.38
2019-06-26T06:05:30.571Z,9.78
2019-06-26T06:08:02.386Z,9.93
2019-06-26T06:10:34.123Z,9.73
2019-06-26T06:13:05.968Z,8.65
2019-06-26T06:15:37.748Z,9.55
2019-06-26T06:18:10.609Z,8.70
2019-06-26T06:20:42.459Z,8.88
2019-06-26T06:23:14.230Z,8.83
2019-06-26T06:25:46.010Z,8.53
2019-06-26T06:28:17.779Z,7.60
2019-06-26T06:30:49.823Z,7.20
2019-06-26T06:33:21.584Z,7.97
2019-06-26T06:35:53.365Z,7.10
2019-06-26T06:38:25.131Z,7.53
2019-06-26T06:40:56.908Z,8.15
2019-06-26T06:43:28.939Z,8.13
2019-06-26T06:46:00.705Z,7.83
2019-06-26T06:48:32.463Z,8.08
2019-06-26T06:51:04.875Z,8.30
2019-06-26T06:53:36.647Z,8.03
2019-06-26T06:56:08.407Z,8.10
2019-06-26T06:58:40.171Z,7.92
2019-06-26T07:01:11.943Z,8.80
2019-06-26T07:03:43.707Z,8.23
2019-06-26T07:06:15.492Z,7.28
2019-06-26T07:08:47.258Z,8.28
2019-06-26T07:11:19.030Z,7.83
2019-06-26T07:13:50.796Z,7.72
2019-06-26T07:16:22.846Z,7.53
2019-06-26T07:18:54.606Z,8.25
2019-06-26T07:21:26.645Z,7.10
2019-06-26T07:23:58.404Z,7.78
2019-06-26T07:26:30.190Z,7.72
2019-06-26T07:29:02.056Z,6.70
2019-06-26T07:31:33.846Z,7.20
2019-06-26T07:34:05.675Z,7.00
2019-06-26T07:36:37.445Z,7.30
2019-06-26T07:39:09.208Z,6.75
2019-06-26T07:41:40.978Z,6.95
2019-06-26T07:44:12.735Z,7.17
2019-06-26T07:46:44.506Z,6.80
2019-06-26T07:49:16.265Z,7.05
2019-06-26T07:51:48.044Z,7.03
2019-06-26T07:54:19.809Z,7.30
2019-06-26T07:56:52.291Z,7.05
2019-06-26T07:59:25.031Z,7.28
2019-06-26T08:01:56.799Z,7.22
2019-06-26T08:04:28.558Z,6.58
2019-06-26T08:07:00.335Z,7.08
2019-06-26T08:09:32.100Z,7.25
2019-06-26T08:12:03.914Z,6.47
2019-06-26T08:14:35.671Z,6.33
2019-06-26T08:17:07.728Z,6.40
2019-06-26T08:19:39.504Z,6.58
2019-06-26T08:22:11.391Z,6.03
2019-06-26T08:24:43.153Z,6.58
2019-06-26T08:27:14.919Z,6.70
2019-06-26T08:29:46.682Z,6.28
2019-06-26T08:32:18.570Z,6.05
2019-06-26T08:34:50.355Z,6.67
2019-06-26T08:37:22.153Z,6.53
2019-06-26T08:39:53.928Z,6.37
2019-06-26T08:42:25.681Z,6.43
2019-06-26T08:44:57.447Z,6.60
2019-06-26T08:47:29.219Z,6.87
2019-06-26T08:50:00.990Z,6.28
2019-06-26T08:52:32.787Z,6.60
2019-06-26T08:55:09.080Z,7.47
2019-06-26T08:57:40.882Z,6.97
2019-06-26T09:00:14.157Z,6.70
2019-06-26T09:02:45.924Z,6.70
2019-06-26T09:05:17.915Z,6.63
2019-06-26T09:07:50.296Z,6.97
2019-06-26T09:10:22.255Z,7.20
2019-06-26T09:12:54.039Z,6.62
2019-06-26T09:15:26.190Z,7.08
2019-06-26T09:17:57.985Z,7.08
2019-06-26T09:20:41.041Z,6.67
2019-06-26T09:23:12.881Z,6.85
2019-06-26T09:25:44.646Z,7.33
2019-06-26T09:28:16.488Z,7.08
2019-06-26T09:30:48.240Z,7.25
2019-06-26T09:33:20.030Z,7.07
2019-06-26T09:35:51.794Z,6.60
2019-06-26T09:38:23.569Z,7.03
2019-06-26T09:40:55.328Z,7.22
2019-06-26T09:43:27.098Z,6.57
2019-06-26T09:45:58.902Z,6.72
2019-06-26T09:48:30.695Z,6.85
2019-06-26T09:51:02.458Z,7.35
2019-06-26T09:53:46.589Z,6.85
2019-06-26T09:56:09.052Z,7.20
2019-06-26T09:58:40.822Z,6.75
2019-06-26T10:01:12.596Z,7.92
2019-06-26T10:03:45.402Z,6.92
2019-06-26T10:06:17.343Z,6.65
2019-06-26T10:08:49.445Z,7.28
2019-06-26T10:11:21.239Z,7.00
2019-06-26T10:13:53.016Z,6.80
2019-06-26T10:16:24.795Z,6.83
2019-06-26T10:19:09.495Z,6.90
2019-06-26T10:21:30.049Z,7.47
2019-06-26T10:24:01.827Z,6.80
2019-06-26T10:26:33.590Z,6.62
2019-06-26T10:29:05.430Z,6.05
2019-06-26T10:31:37.241Z,5.90
2019-06-26T10:34:10.293Z,6.08
2019-06-26T10:36:42.229Z,5.45
2019-06-26T10:39:14.000Z,5.90
2019-06-26T10:41:45.767Z,6.15
2019-06-26T10:44:17.542Z,5.47
2019-06-26T10:46:49.315Z,5.50
2019-06-26T10:49:27.099Z,5.03
2019-06-26T10:51:54.554Z,4.87
2019-06-26T10:54:26.384Z,5.00
2019-06-26T10:56:58.142Z,5.55
2019-06-26T10:59:29.931Z,4.75
2019-06-26T11:02:01.675Z,5.05
2019-06-26T11:04:33.454Z,4.90
2019-06-26T11:07:05.383Z,4.90
2019-06-26T11:09:37.183Z,5.05
2019-06-26T11:12:09.189Z,4.50
2019-06-26T11:14:41.940Z,4.40
2019-06-26T11:17:13.703Z,4.72
2019-06-26T11:19:45.468Z,4.72
2019-06-26T11:22:17.241Z,4.50
2019-06-26T11:24:49.048Z,4.20
2019-06-26T11:27:20.869Z,4.60
2019-06-26T11:29:52.637Z,4.33
2019-06-26T11:32:24.485Z,4.25
2019-06-26T11:34:56.276Z,4.70
2019-06-26T11:37:28.015Z,4.35
2019-06-26T11:39:59.788Z,4.37
2019-06-26T11:42:32.850Z,4.83
2019-06-26T11:45:09.305Z,4.03
2019-06-26T11:47:45.585Z,4.40
2019-06-26T11:50:19.229Z,5.08
2019-06-26T11:52:50.985Z,5.00
2019-06-26T11:55:22.972Z,4.70
2019-06-26T11:57:54.745Z,5.23
2019-06-26T12:00:27.223Z,4.78
2019-06-26T12:02:59.025Z,5.17
2019-06-26T12:05:30.872Z,4.90
2019-06-26T12:08:02.633Z,5.05
2019-06-26T12:10:34.404Z,4.95
2019-06-26T12:13:06.241Z,5.12
2019-06-26T12:15:43.807Z,5.03
2019-06-26T12:18:15.568Z,4.46
2019-06-26T12:20:47.355Z,5.03
2019-06-26T12:23:19.140Z,5.08
2019-06-26T12:25:51.196Z,4.50
2019-06-26T12:28:22.964Z,4.23
2019-06-26T12:30:54.737Z,4.65
2019-06-26T12:33:26.510Z,4.60
2019-06-26T12:35:58.287Z,4.50
2019-06-26T12:38:30.045Z,4.53
2019-06-26T12:41:01.848Z,4.90
2019-06-26T12:43:33.613Z,4.42
2019-06-26T12:46:05.618Z,5.20
2019-06-26T12:48:37.447Z,5.12
2019-06-26T12:51:09.274Z,5.17
2019-06-26T12:53:40.982Z,5.20
2019-06-26T12:56:12.748Z,4.58
2019-06-26T12:58:44.507Z,4.92
2019-06-26T13:01:16.324Z,5.25
2019-06-26T13:03:49.091Z,4.97
2019-06-26T13:06:20.873Z,4.60
2019-06-26T13:08:52.635Z,5.70
2019-06-26T13:11:24.406Z,5.22
2019-06-26T13:14:02.595Z,4.90
2019-06-26T13:16:29.663Z,5.22
2019-06-26T13:19:01.435Z,5.28
2019-06-26T13:21:33.297Z,5.05
2019-06-26T13:24:05.063Z,5.40
2019-06-26T13:26:36.828Z,4.97
2019-06-26T13:29:09.944Z,5.15
2019-06-26T13:31:42.037Z,4.83
2019-06-26T13:34:13.799Z,5.35
2019-06-26T13:36:45.580Z,5.28
2019-06-26T13:39:17.343Z,5.20
2019-06-26T13:41:49.124Z,5.12
2019-06-26T13:44:20.894Z,5.20
2019-06-26T13:46:52.835Z,5.25
2019-06-26T13:49:24.599Z,5.60
2019-06-26T13:51:56.371Z,5.95
2019-06-26T13:54:28.486Z,5.42
2019-06-26T13:57:00.254Z,5.30
2019-06-26T13:59:32.019Z,5.37
2019-06-26T14:02:03.813Z,5.50
2019-06-26T14:04:35.560Z,5.67
2019-06-26T14:07:08.681Z,4.92
2019-06-26T14:09:40.777Z,5.12
2019-06-26T14:12:12.548Z,5.45
2019-06-26T14:14:56.734Z,5.03
2019-06-26T14:17:17.782Z,5.45
2019-06-26T14:19:49.562Z,5.62
2019-06-26T14:22:21.338Z,5.80
2019-06-26T14:24:54.251Z,5.72
2019-06-26T14:27:26.150Z,5.55
2019-06-26T14:29:57.939Z,5.40
2019-06-26T14:32:29.723Z,5.05
2019-06-26T14:35:01.458Z,5.40
2019-06-26T14:37:33.221Z,5.30
2019-06-26T14:40:07.802Z,5.95
2019-06-26T14:42:39.570Z,5.40
2019-06-26T14:45:13.010Z,5.95
2019-06-26T14:47:44.786Z,5.90
2019-06-26T14:50:17.485Z,5.80
2019-06-26T14:52:49.530Z,4.85
2019-06-26T14:55:21.303Z,5.92
2019-06-26T14:57:53.106Z,5.58
2019-06-26T15:00:25.648Z,5.97
2019-06-26T15:02:57.400Z,5.90
2019-06-26T15:05:29.177Z,6.12
2019-06-26T15:08:00.949Z,5.90
2019-06-26T15:10:32.710Z,6.40
2019-06-26T15:13:04.492Z,5.85
2019-06-26T15:15:37.228Z,6.72
2019-06-26T15:18:10.645Z,5.53
2019-06-26T15:20:42.480Z,6.28
2019-06-26T15:23:14.259Z,6.12
2019-06-26T15:25:46.023Z,6.72
2019-06-26T15:28:17.797Z,6.73
2019-06-26T15:30:49.561Z,5.65
2019-06-26T15:33:22.307Z,6.08
2019-06-26T15:35:54.393Z,5.67
2019-06-26T15:38:26.176Z,5.67
2019-06-26T15:40:58.996Z,6.67
2019-06-26T15:43:30.787Z,6.50
2019-06-26T15:46:02.617Z,5.28
2019-06-26T15:48:34.403Z,6.08
2019-06-26T15:51:06.174Z,6.67
2019-06-26T15:53:37.969Z,6.10
2019-06-26T15:56:10.790Z,5.98
2019-06-26T15:58:42.580Z,6.50
2019-06-26T16:01:14.331Z,6.40
2019-06-26T16:03:46.110Z,5.85
2019-06-26T16:06:17.871Z,6.20
2019-06-26T16:08:49.649Z,6.65
2019-06-26T16:11:21.415Z,5.78
2019-06-26T16:13:53.192Z,5.83
2019-06-26T16:16:25.249Z,6.53
2019-06-26T16:18:58.668Z,5.80
2019-06-26T16:21:30.822Z,6.30
2019-06-26T16:24:03.592Z,5.80
2019-06-26T16:26:37.168Z,5.97
2019-06-26T16:29:09.039Z,5.67
2019-06-26T16:31:40.802Z,5.90
2019-06-26T16:34:12.588Z,5.45
2019-06-26T16:36:44.355Z,5.92
2019-06-26T16:39:16.145Z,5.80
2019-06-26T16:41:49.213Z,5.60
2019-06-26T16:44:22.016Z,5.53
2019-06-26T16:46:53.788Z,5.78
2019-06-26T16:49:25.556Z,5.83
2019-06-26T16:51:57.392Z,5.80
2019-06-26T16:54:29.175Z,5.87
2019-06-26T16:57:01.063Z,5.58
2019-06-26T16:59:32.929Z,5.47
2019-06-26T17:02:07.026Z,5.15
2019-06-26T17:04:38.175Z,5.80
2019-06-26T17:07:10.674Z,5.53
2019-06-26T17:09:44.433Z,5.08
2019-06-26T17:12:15.933Z,5.20
2019-06-26T17:14:47.721Z,5.10
2019-06-26T17:17:19.479Z,5.95
2019-06-26T17:19:51.254Z,5.65
2019-06-26T17:22:23.217Z,5.42
2019-06-26T17:24:55.008Z,5.50
2019-06-26T17:27:26.771Z,5.55
2019-06-26T17:29:59.329Z,5.05
2019-06-26T17:32:31.298Z,4.75
2019-06-26T17:35:04.971Z,5.83
2019-06-26T17:37:36.915Z,6.08
2019-06-26T17:40:09.730Z,5.33
2019-06-26T17:42:41.565Z,5.40
2019-06-26T17:45:13.682Z,5.72
2019-06-26T17:47:45.520Z,5.08
2019-06-26T17:50:18.303Z,5.35
2019-06-26T17:52:50.138Z,4.78
2019-06-26T17:55:22.187Z,5.40
2019-06-26T17:57:53.942Z,5.15
2019-06-26T18:00:37.350Z,4.92
2019-06-26T18:03:09.260Z,5.67
2019-06-26T18:05:42.449Z,5.28
2019-06-26T18:08:14.556Z,5.45
2019-06-26T18:10:46.401Z,5.20
2019-06-26T18:13:18.174Z,5.17
2019-06-26T18:15:57.353Z,5.08
2019-06-26T18:18:29.319Z,5.83
2019-06-26T18:21:01.345Z,5.97
2019-06-26T18:23:37.609Z,5.22
2019-06-26T18:26:12.924Z,5.72
2019-06-26T18:28:40.212Z,5.70
2019-06-26T18:31:12.066Z,6.15
2019-06-26T18:33:44.444Z,5.20
2019-06-26T18:36:16.430Z,5.52
2019-06-26T18:38:48.230Z,5.62
2019-06-26T18:41:20.082Z,5.83
2019-06-26T18:43:51.940Z,5.78
2019-06-26T18:46:24.978Z,6.33
2019-06-26T18:48:56.908Z,5.35
2019-06-26T18:51:28.740Z,6.25
2019-06-26T18:54:01.217Z,6.03
2019-06-26T18:56:33.403Z,5.65
2019-06-26T18:59:05.699Z,5.72
2019-06-26T19:01:56.467Z,6.67
2019-06-26T19:04:47.423Z,6.70
2019-06-26T19:07:19.317Z,6.10
2019-06-26T19:09:51.090Z,6.10
2019-06-26T19:12:24.616Z,6.43
2019-06-26T19:14:56.498Z,6.33
2019-06-26T19:17:28.399Z,6.50
2019-06-26T19:20:00.236Z,6.25
2019-06-26T19:22:32.095Z,6.67
2019-06-26T19:25:07.181Z,6.22
2019-06-26T19:27:57.843Z,6.20
2019-06-26T19:30:29.688Z,6.87
2019-06-26T19:33:01.519Z,6.67
2019-06-26T19:35:33.448Z,6.10
2019-06-26T19:38:06.926Z,6.30
2019-06-26T19:40:39.069Z,6.37
2019-06-26T19:43:11.593Z,6.20
2019-06-26T19:45:43.501Z,6.35
2019-06-26T19:48:15.425Z,5.92
2019-06-26T19:50:49.582Z,7.15
2019-06-26T19:53:21.531Z,6.75
2019-06-26T19:55:53.542Z,7.03
2019-06-26T19:58:25.327Z,6.53
2019-06-26T20:00:56.539Z,6.83
2019-06-26T20:03:28.320Z,7.13
2019-06-26T20:06:00.112Z,6.87
2019-06-26T20:08:32.160Z,7.15
2019-06-26T20:11:05.625Z,6.92
2019-06-26T20:13:37.412Z,6.67
2019-06-26T20:16:09.753Z,6.90
2019-06-26T20:18:42.512Z,6.53
2019-06-26T20:21:14.282Z,6.97
2019-06-26T20:23:46.339Z,7.28
2019-06-26T20:26:18.187Z,7.13
2019-06-26T20:28:49.970Z,7.00
2019-06-26T20:31:21.950Z,6.80
2019-06-26T20:33:53.746Z,7.47
2019-06-26T20:36:25.491Z,7.53
2019-06-26T20:38:57.606Z,7.30
2019-06-26T20:41:29.379Z,7.40
2019-06-26T20:44:01.185Z,7.08
2019-06-26T20:46:33.006Z,7.28
2019-06-26T20:49:04.785Z,7.33
2019-06-26T20:51:36.634Z,7.58
2019-06-26T20:54:08.579Z,6.87
2019-06-26T20:56:40.355Z,7.70
2019-06-26T20:59:12.126Z,6.60
2019-06-26T21:01:43.963Z,6.60
2019-06-26T21:04:15.783Z,6.72
2019-06-26T21:06:47.545Z,6.80
2019-06-26T21:09:19.328Z,6.92
2019-06-26T21:11:51.537Z,6.92
2019-06-26T21:14:23.474Z,6.97
2019-06-26T21:16:55.303Z,7.20
2019-06-26T21:19:27.217Z,6.90
2019-06-26T21:21:59.119Z,7.50
2019-06-26T21:24:31.382Z,6.75
2019-06-26T21:27:03.281Z,7.00
2019-06-26T21:29:36.162Z,7.37
2019-06-26T21:32:08.074Z,6.90
2019-06-26T21:34:39.907Z,7.20
2019-06-26T21:37:11.674Z,7.08
2019-06-26T21:39:43.488Z,6.72
2019-06-26T21:42:15.489Z,6.92
2019-06-26T21:44:47.369Z,7.22
2019-06-26T21:47:19.279Z,7.10
2019-06-26T21:49:51.200Z,7.55
2019-06-26T21:52:22.973Z,7.30
2019-06-26T21:54:55.070Z,7.37
2019-06-26T21:57:44.657Z,6.87
2019-06-26T22:00:35.937Z,7.40
2019-06-26T22:03:25.432Z,7.12
2019-06-26T22:05:59.339Z,6.85
2019-06-26T22:08:47.501Z,6.40
2019-06-26T22:11:21.196Z,6.55
2019-06-26T22:13:52.989Z,6.67
2019-06-26T22:16:26.021Z,6.67
2019-06-26T22:18:58.208Z,6.85
2019-06-26T22:21:30.046Z,6.58
2019-06-26T22:24:01.821Z,6.78
2019-06-26T22:26:33.585Z,7.50
2019-06-26T22:29:05.431Z,7.20
2019-06-26T22:31:37.215Z,6.62
2019-06-26T22:34:08.993Z,6.75
2019-06-26T22:36:50.990Z,6.85
2019-06-26T22:39:14.251Z,6.05
2019-06-26T22:41:46.657Z,6.87
2019-06-26T22:44:18.434Z,5.95
2019-06-26T22:46:50.196Z,6.60
2019-06-26T22:49:21.979Z,6.95
2019-06-26T22:51:53.775Z,7.47
2019-06-26T22:54:25.534Z,6.97
2019-06-26T22:56:57.307Z,8.03
2019-06-26T22:59:29.155Z,7.28
2019-06-26T23:02:00.928Z,7.08
2019-06-26T23:04:32.709Z,7.25
2019-06-26T23:07:04.626Z,6.60
2019-06-26T23:09:36.428Z,6.75
2019-06-26T23:12:08.181Z,7.03
2019-06-26T23:14:39.962Z,8.03
2019-06-26T23:17:11.742Z,7.33
2019-06-26T23:19:45.106Z,6.78
2019-06-26T23:22:16.873Z,7.05
2019-06-26T23:24:48.672Z,7.00
2019-06-26T23:27:20.426Z,7.00
2019-06-26T23:29:52.242Z,6.95
2019-06-26T23:32:24.018Z,6.87
2019-06-26T23:34:56.665Z,7.28
2019-06-26T23:37:28.517Z,7.17
2019-06-26T23:40:00.311Z,7.30
2019-06-26T23:42:32.077Z,7.92
2019-06-26T23:45:07.625Z,6.28
2019-06-26T23:47:39.446Z,6.78
2019-06-26T23:50:11.337Z,6.87
2019-06-26T23:52:43.181Z,6.75
2019-06-26T23:55:16.526Z,7.00
2019-06-26T23:57:59.187Z,7.05
